Columbia, Kentucky
Current Conditions -  °F | °C
As of 9:56 AM on Thursday 30 Oct 2014 (Local Time) from KEKQ Reporting Station
Clear Clear  
Wind Chill: 50°   Ceiling: Unl
Heat Index: 50°   Visibility: 10mi
Dew Point: 39°   Wind: 5mph
Humidity: 66%   Direction: 60°ENE
Pressure: 30.18"   Gusts: NA
Location:  37.1°N, 85.31°W
Report Text: KEKQ 301456Z AUTO 06004KT 10SM CLR 10/04 A3018 RMK AO2 50006 T01000038 SLP228
Loading
Personal Weather Stations






























Interactive Weather Map
Tropical Storm Tracking
New forecast layout! Learn more

10-Day Weather Forecast

Advertisements
Track Severe Weather on mobile